sensor_id;sensor_type;location;lat;lon;timestamp;P1;durP1;ratioP1;P2;durP2;ratioP2
62941;SDS011;49042;47.318;19.874;2022-12-05T00:04:25;9.02;;;4.75;;
62941;SDS011;49042;47.318;19.874;2022-12-05T00:07:27;7.43;;;4.90;;
62941;SDS011;49042;47.318;19.874;2022-12-05T00:10:29;9.02;;;4.78;;
62941;SDS011;49042;47.318;19.874;2022-12-05T00:13:30;9.90;;;5.82;;
62941;SDS011;49042;47.318;19.874;2022-12-05T00:16:32;10.10;;;5.62;;
62941;SDS011;49042;47.318;19.874;2022-12-05T00:19:36;9.27;;;5.32;;
62941;SDS011;49042;47.318;19.874;2022-12-05T00:22:39;6.62;;;5.28;;
62941;SDS011;49042;47.318;19.874;2022-12-05T00:25:40;10.43;;;4.87;;
62941;SDS011;49042;47.318;19.874;2022-12-05T00:28:44;9.27;;;5.72;;
62941;SDS011;49042;47.318;19.874;2022-12-05T00:31:45;10.27;;;5.40;;
62941;SDS011;49042;47.318;19.874;2022-12-05T00:34:47;7.87;;;4.97;;
62941;SDS011;49042;47.318;19.874;2022-12-05T00:37:49;8.80;;;5.18;;
62941;SDS011;49042;47.318;19.874;2022-12-05T00:40:50;6.60;;;4.82;;
62941;SDS011;49042;47.318;19.874;2022-12-05T00:43:52;13.18;;;5.78;;
62941;SDS011;49042;47.318;19.874;2022-12-05T00:46:55;9.52;;;5.93;;
62941;SDS011;49042;47.318;19.874;2022-12-05T00:49:56;8.95;;;6.00;;
62941;SDS011;49042;47.318;19.874;2022-12-05T00:52:58;8.20;;;5.75;;
62941;SDS011;49042;47.318;19.874;2022-12-05T00:56:01;10.40;;;6.60;;
62941;SDS011;49042;47.318;19.874;2022-12-05T00:59:04;8.70;;;5.97;;
62941;SDS011;49042;47.318;19.874;2022-12-05T01:02:06;11.20;;;6.25;;
62941;SDS011;49042;47.318;19.874;2022-12-05T01:05:08;12.43;;;7.25;;
62941;SDS011;49042;47.318;19.874;2022-12-05T01:08:09;9.50;;;6.32;;
62941;SDS011;49042;47.318;19.874;2022-12-05T01:11:13;10.13;;;6.12;;
62941;SDS011;49042;47.318;19.874;2022-12-05T01:14:17;10.98;;;6.03;;
62941;SDS011;49042;47.318;19.874;2022-12-05T01:17:20;9.32;;;5.85;;
62941;SDS011;49042;47.318;19.874;2022-12-05T01:20:22;10.27;;;6.03;;
62941;SDS011;49042;47.318;19.874;2022-12-05T01:23:23;10.40;;;5.97;;
62941;SDS011;49042;47.318;19.874;2022-12-05T01:26:25;11.25;;;5.95;;
62941;SDS011;49042;47.318;19.874;2022-12-05T01:29:27;9.30;;;5.43;;
62941;SDS011;49042;47.318;19.874;2022-12-05T01:32:28;8.57;;;5.47;;
62941;SDS011;49042;47.318;19.874;2022-12-05T01:35:30;9.35;;;5.65;;
62941;SDS011;49042;47.318;19.874;2022-12-05T01:38:33;7.70;;;4.97;;
62941;SDS011;49042;47.318;19.874;2022-12-05T01:41:35;7.75;;;5.00;;
62941;SDS011;49042;47.318;19.874;2022-12-05T01:47:43;7.80;;;5.07;;
62941;SDS011;49042;47.318;19.874;2022-12-05T01:50:45;9.65;;;5.47;;
62941;SDS011;49042;47.318;19.874;2022-12-05T01:53:48;7.57;;;5.40;;
62941;SDS011;49042;47.318;19.874;2022-12-05T01:57:00;10.18;;;5.10;;
62941;SDS011;49042;47.318;19.874;2022-12-05T02:00:10;8.18;;;5.57;;
62941;SDS011;49042;47.318;19.874;2022-12-05T02:03:16;8.68;;;5.35;;
62941;SDS011;49042;47.318;19.874;2022-12-05T02:06:19;7.55;;;4.72;;
62941;SDS011;49042;47.318;19.874;2022-12-05T02:09:22;7.35;;;4.50;;
62941;SDS011;49042;47.318;19.874;2022-12-05T02:12:24;10.80;;;5.55;;
62941;SDS011;49042;47.318;19.874;2022-12-05T02:15:35;7.72;;;5.32;;
62941;SDS011;49042;47.318;19.874;2022-12-05T02:18:57;8.70;;;5.15;;
62941;SDS011;49042;47.318;19.874;2022-12-05T02:42:58;9.48;;;5.85;;
62941;SDS011;49042;47.318;19.874;2022-12-05T02:46:08;10.05;;;5.97;;
62941;SDS011;49042;47.318;19.874;2022-12-05T02:49:14;8.65;;;5.75;;
62941;SDS011;49042;47.318;19.874;2022-12-05T02:52:21;10.27;;;5.47;;
62941;SDS011;49042;47.318;19.874;2022-12-05T02:55:25;9.98;;;5.28;;
62941;SDS011;49042;47.318;19.874;2022-12-05T02:58:33;7.95;;;5.43;;
62941;SDS011;49042;47.318;19.874;2022-12-05T03:01:39;8.15;;;5.78;;
62941;SDS011;49042;47.318;19.874;2022-12-05T03:04:45;8.82;;;5.35;;
62941;SDS011;49042;47.318;19.874;2022-12-05T03:07:47;9.60;;;5.97;;
62941;SDS011;49042;47.318;19.874;2022-12-05T03:10:52;10.63;;;5.72;;
62941;SDS011;49042;47.318;19.874;2022-12-05T03:13:55;11.50;;;5.85;;
62941;SDS011;49042;47.318;19.874;2022-12-05T03:17:02;11.17;;;6.17;;
62941;SDS011;49042;47.318;19.874;2022-12-05T03:30:07;11.50;;;6.85;;
62941;SDS011;49042;47.318;19.874;2022-12-05T03:33:19;16.60;;;8.48;;
62941;SDS011;49042;47.318;19.874;2022-12-05T03:36:37;13.15;;;7.10;;
62941;SDS011;49042;47.318;19.874;2022-12-05T03:39:45;17.45;;;7.82;;
62941;SDS011;49042;47.318;19.874;2022-12-05T03:42:54;11.70;;;6.53;;
62941;SDS011;49042;47.318;19.874;2022-12-05T03:49:10;9.15;;;5.97;;
62941;SDS011;49042;47.318;19.874;2022-12-05T03:52:39;13.95;;;7.25;;
62941;SDS011;49042;47.318;19.874;2022-12-05T03:56:09;13.40;;;7.40;;
62941;SDS011;49042;47.318;19.874;2022-12-05T04:02:44;12.48;;;7.15;;
62941;SDS011;49042;47.318;19.874;2022-12-05T04:05:54;10.48;;;6.70;;
62941;SDS011;49042;47.318;19.874;2022-12-05T04:09:11;9.25;;;6.00;;
62941;SDS011;49042;47.318;19.874;2022-12-05T04:12:34;9.77;;;6.00;;
62941;SDS011;49042;47.318;19.874;2022-12-05T04:15:37;10.90;;;6.53;;
62941;SDS011;49042;47.318;19.874;2022-12-05T04:19:00;10.82;;;6.10;;
62941;SDS011;49042;47.318;19.874;2022-12-05T04:22:08;9.00;;;5.87;;
62941;SDS011;49042;47.318;19.874;2022-12-05T04:25:10;13.32;;;7.25;;
62941;SDS011;49042;47.318;19.874;2022-12-05T04:28:35;15.25;;;8.57;;
62941;SDS011;49042;47.318;19.874;2022-12-05T04:31:43;11.70;;;6.62;;
62941;SDS011;49042;47.318;19.874;2022-12-05T04:34:52;12.52;;;7.80;;
62941;SDS011;49042;47.318;19.874;2022-12-05T04:38:42;11.65;;;7.12;;
62941;SDS011;49042;47.318;19.874;2022-12-05T04:41:33;10.18;;;6.50;;
62941;SDS011;49042;47.318;19.874;2022-12-05T04:44:40;9.23;;;5.20;;
62941;SDS011;49042;47.318;19.874;2022-12-05T04:47:53;7.37;;;4.90;;
62941;SDS011;49042;47.318;19.874;2022-12-05T04:50:59;8.35;;;4.85;;
62941;SDS011;49042;47.318;19.874;2022-12-05T04:54:04;6.10;;;4.40;;
62941;SDS011;49042;47.318;19.874;2022-12-05T04:57:22;10.98;;;5.20;;
62941;SDS011;49042;47.318;19.874;2022-12-05T05:00:49;8.35;;;4.60;;
62941;SDS011;49042;47.318;19.874;2022-12-05T05:04:19;9.38;;;4.70;;
62941;SDS011;49042;47.318;19.874;2022-12-05T05:07:26;7.07;;;4.82;;
62941;SDS011;49042;47.318;19.874;2022-12-05T05:10:32;8.68;;;4.72;;
62941;SDS011;49042;47.318;19.874;2022-12-05T05:13:39;12.05;;;5.78;;
62941;SDS011;49042;47.318;19.874;2022-12-05T05:16:41;24.98;;;14.27;;
62941;SDS011;49042;47.318;19.874;2022-12-05T05:19:43;12.93;;;7.55;;
62941;SDS011;49042;47.318;19.874;2022-12-05T05:22:46;9.90;;;6.47;;
62941;SDS011;49042;47.318;19.874;2022-12-05T05:25:52;11.77;;;6.65;;
62941;SDS011;49042;47.318;19.874;2022-12-05T05:28:56;7.72;;;5.00;;
62941;SDS011;49042;47.318;19.874;2022-12-05T05:31:58;7.35;;;4.72;;
62941;SDS011;49042;47.318;19.874;2022-12-05T05:34:59;9.40;;;5.45;;
62941;SDS011;49042;47.318;19.874;2022-12-05T05:38:01;6.57;;;4.55;;
62941;SDS011;49042;47.318;19.874;2022-12-05T05:41:03;9.93;;;5.93;;
62941;SDS011;49042;47.318;19.874;2022-12-05T05:44:05;9.40;;;4.60;;
62941;SDS011;49042;47.318;19.874;2022-12-05T05:47:07;8.40;;;4.87;;
62941;SDS011;49042;47.318;19.874;2022-12-05T05:50:09;10.20;;;5.62;;
62941;SDS011;49042;47.318;19.874;2022-12-05T05:53:18;7.95;;;5.60;;
62941;SDS011;49042;47.318;19.874;2022-12-05T05:56:19;8.93;;;5.45;;
62941;SDS011;49042;47.318;19.874;2022-12-05T05:59:22;7.55;;;5.00;;
62941;SDS011;49042;47.318;19.874;2022-12-05T06:02:24;11.00;;;6.00;;
62941;SDS011;49042;47.318;19.874;2022-12-05T06:05:25;7.80;;;4.62;;
62941;SDS011;49042;47.318;19.874;2022-12-05T06:08:31;9.00;;;5.10;;
62941;SDS011;49042;47.318;19.874;2022-12-05T06:11:33;14.02;;;6.55;;
62941;SDS011;49042;47.318;19.874;2022-12-05T06:14:35;9.18;;;5.37;;
62941;SDS011;49042;47.318;19.874;2022-12-05T06:17:36;13.25;;;6.62;;
62941;SDS011;49042;47.318;19.874;2022-12-05T06:20:38;23.35;;;11.57;;
62941;SDS011;49042;47.318;19.874;2022-12-05T06:23:40;23.38;;;13.65;;
62941;SDS011;49042;47.318;19.874;2022-12-05T06:26:42;10.02;;;6.90;;
62941;SDS011;49042;47.318;19.874;2022-12-05T06:29:43;11.63;;;6.10;;
62941;SDS011;49042;47.318;19.874;2022-12-05T06:32:45;19.15;;;10.30;;
62941;SDS011;49042;47.318;19.874;2022-12-05T06:35:47;19.40;;;8.52;;
62941;SDS011;49042;47.318;19.874;2022-12-05T06:38:48;19.55;;;10.63;;
62941;SDS011;49042;47.318;19.874;2022-12-05T06:41:50;15.65;;;7.10;;
62941;SDS011;49042;47.318;19.874;2022-12-05T06:44:52;16.37;;;8.50;;
62941;SDS011;49042;47.318;19.874;2022-12-05T06:47:54;14.87;;;6.40;;
62941;SDS011;49042;47.318;19.874;2022-12-05T06:50:56;9.13;;;5.75;;
62941;SDS011;49042;47.318;19.874;2022-12-05T06:53:57;13.85;;;7.90;;
62941;SDS011;49042;47.318;19.874;2022-12-05T06:56:59;10.77;;;5.87;;
62941;SDS011;49042;47.318;19.874;2022-12-05T07:00:00;11.00;;;6.00;;
62941;SDS011;49042;47.318;19.874;2022-12-05T07:03:21;7.65;;;5.75;;
62941;SDS011;49042;47.318;19.874;2022-12-05T07:06:23;11.70;;;7.28;;
62941;SDS011;49042;47.318;19.874;2022-12-05T07:09:25;10.02;;;6.50;;
62941;SDS011;49042;47.318;19.874;2022-12-05T07:12:45;10.13;;;6.80;;
62941;SDS011;49042;47.318;19.874;2022-12-05T07:15:47;12.68;;;6.55;;
62941;SDS011;49042;47.318;19.874;2022-12-05T07:18:49;12.05;;;7.30;;
62941;SDS011;49042;47.318;19.874;2022-12-05T07:21:51;21.33;;;11.38;;
62941;SDS011;49042;47.318;19.874;2022-12-05T07:24:53;24.45;;;12.93;;
62941;SDS011;49042;47.318;19.874;2022-12-05T07:27:54;13.77;;;9.10;;
62941;SDS011;49042;47.318;19.874;2022-12-05T07:31:02;10.75;;;6.85;;
62941;SDS011;49042;47.318;19.874;2022-12-05T07:34:05;13.43;;;7.03;;
62941;SDS011;49042;47.318;19.874;2022-12-05T07:37:07;10.10;;;6.50;;
62941;SDS011;49042;47.318;19.874;2022-12-05T07:40:09;11.35;;;6.50;;
62941;SDS011;49042;47.318;19.874;2022-12-05T07:43:11;10.65;;;6.75;;
62941;SDS011;49042;47.318;19.874;2022-12-05T07:46:13;15.85;;;8.02;;
62941;SDS011;49042;47.318;19.874;2022-12-05T07:49:15;14.30;;;7.53;;
62941;SDS011;49042;47.318;19.874;2022-12-05T07:52:16;12.43;;;7.35;;
62941;SDS011;49042;47.318;19.874;2022-12-05T07:55:18;12.43;;;7.10;;
62941;SDS011;49042;47.318;19.874;2022-12-05T07:58:19;13.55;;;7.60;;
62941;SDS011;49042;47.318;19.874;2022-12-05T08:01:24;17.05;;;9.30;;
62941;SDS011;49042;47.318;19.874;2022-12-05T08:04:28;14.83;;;7.33;;
62941;SDS011;49042;47.318;19.874;2022-12-05T08:07:29;18.98;;;10.55;;
62941;SDS011;49042;47.318;19.874;2022-12-05T08:10:32;12.75;;;7.60;;
62941;SDS011;49042;47.318;19.874;2022-12-05T08:13:34;13.93;;;7.35;;
62941;SDS011;49042;47.318;19.874;2022-12-05T08:16:36;11.65;;;7.05;;
62941;SDS011;49042;47.318;19.874;2022-12-05T08:19:38;12.63;;;6.62;;
62941;SDS011;49042;47.318;19.874;2022-12-05T08:22:39;16.77;;;6.93;;
62941;SDS011;49042;47.318;19.874;2022-12-05T08:25:41;14.68;;;7.22;;
62941;SDS011;49042;47.318;19.874;2022-12-05T08:28:43;11.85;;;6.62;;
62941;SDS011;49042;47.318;19.874;2022-12-05T08:31:46;15.90;;;8.00;;
62941;SDS011;49042;47.318;19.874;2022-12-05T08:34:49;14.60;;;7.12;;
62941;SDS011;49042;47.318;19.874;2022-12-05T08:37:51;29.37;;;9.30;;
62941;SDS011;49042;47.318;19.874;2022-12-05T08:40:53;18.17;;;8.88;;
62941;SDS011;49042;47.318;19.874;2022-12-05T08:43:59;24.12;;;10.30;;
62941;SDS011;49042;47.318;19.874;2022-12-05T08:47:05;50.20;;;16.55;;
62941;SDS011;49042;47.318;19.874;2022-12-05T08:50:07;32.25;;;13.45;;
62941;SDS011;49042;47.318;19.874;2022-12-05T08:53:09;10.55;;;5.10;;
62941;SDS011;49042;47.318;19.874;2022-12-05T08:56:11;25.25;;;10.13;;
62941;SDS011;49042;47.318;19.874;2022-12-05T08:59:13;10.55;;;6.18;;
62941;SDS011;49042;47.318;19.874;2022-12-05T09:02:14;10.85;;;5.95;;
62941;SDS011;49042;47.318;19.874;2022-12-05T09:05:17;12.15;;;6.97;;
62941;SDS011;49042;47.318;19.874;2022-12-05T09:08:28;8.32;;;5.15;;
62941;SDS011;49042;47.318;19.874;2022-12-05T09:11:31;21.20;;;10.13;;
62941;SDS011;49042;47.318;19.874;2022-12-05T09:14:34;13.25;;;5.65;;
62941;SDS011;49042;47.318;19.874;2022-12-05T09:17:36;12.05;;;5.75;;
62941;SDS011;49042;47.318;19.874;2022-12-05T09:20:39;9.32;;;6.50;;
62941;SDS011;49042;47.318;19.874;2022-12-05T09:23:41;12.40;;;7.07;;
62941;SDS011;49042;47.318;19.874;2022-12-05T09:26:43;11.73;;;6.87;;
62941;SDS011;49042;47.318;19.874;2022-12-05T09:29:46;16.58;;;7.78;;
62941;SDS011;49042;47.318;19.874;2022-12-05T09:32:48;16.08;;;8.55;;
62941;SDS011;49042;47.318;19.874;2022-12-05T09:35:49;13.15;;;9.65;;
62941;SDS011;49042;47.318;19.874;2022-12-05T09:38:51;48.30;;;31.95;;
62941;SDS011;49042;47.318;19.874;2022-12-05T09:45:11;19.98;;;10.75;;
62941;SDS011;49042;47.318;19.874;2022-12-05T09:48:22;14.77;;;8.00;;
62941;SDS011;49042;47.318;19.874;2022-12-05T09:51:24;14.55;;;7.93;;
62941;SDS011;49042;47.318;19.874;2022-12-05T09:54:27;17.85;;;9.85;;
62941;SDS011;49042;47.318;19.874;2022-12-05T09:57:36;10.88;;;6.37;;
62941;SDS011;49042;47.318;19.874;2022-12-05T10:00:40;11.65;;;6.87;;
62941;SDS011;49042;47.318;19.874;2022-12-05T10:03:45;13.57;;;6.95;;
62941;SDS011;49042;47.318;19.874;2022-12-05T10:17:25;7.78;;;4.65;;
62941;SDS011;49042;47.318;19.874;2022-12-05T10:20:34;8.32;;;5.30;;
62941;SDS011;49042;47.318;19.874;2022-12-05T10:23:56;19.08;;;8.38;;
62941;SDS011;49042;47.318;19.874;2022-12-05T10:27:01;23.02;;;11.23;;
62941;SDS011;49042;47.318;19.874;2022-12-05T10:30:19;33.08;;;13.90;;
62941;SDS011;49042;47.318;19.874;2022-12-05T10:33:23;7.75;;;5.10;;
62941;SDS011;49042;47.318;19.874;2022-12-05T10:36:31;5.87;;;4.32;;
62941;SDS011;49042;47.318;19.874;2022-12-05T10:39:32;5.65;;;4.30;;
62941;SDS011;49042;47.318;19.874;2022-12-05T10:42:34;9.10;;;5.32;;
62941;SDS011;49042;47.318;19.874;2022-12-05T10:45:40;88.05;;;23.92;;
62941;SDS011;49042;47.318;19.874;2022-12-05T10:48:45;78.70;;;23.40;;
62941;SDS011;49042;47.318;19.874;2022-12-05T10:51:46;17.58;;;8.85;;
62941;SDS011;49042;47.318;19.874;2022-12-05T10:54:56;24.50;;;9.02;;
62941;SDS011;49042;47.318;19.874;2022-12-05T10:58:16;82.18;;;21.50;;
62941;SDS011;49042;47.318;19.874;2022-12-05T11:01:24;12.77;;;6.50;;
62941;SDS011;49042;47.318;19.874;2022-12-05T11:04:31;21.45;;;8.27;;
62941;SDS011;49042;47.318;19.874;2022-12-05T11:07:45;37.50;;;13.07;;
62941;SDS011;49042;47.318;19.874;2022-12-05T11:10:54;15.85;;;8.68;;
62941;SDS011;49042;47.318;19.874;2022-12-05T11:14:05;7.40;;;5.28;;
62941;SDS011;49042;47.318;19.874;2022-12-05T11:17:52;12.90;;;6.93;;
62941;SDS011;49042;47.318;19.874;2022-12-05T11:20:46;53.63;;;16.50;;
62941;SDS011;49042;47.318;19.874;2022-12-05T11:23:48;19.33;;;8.35;;
62941;SDS011;49042;47.318;19.874;2022-12-05T11:26:50;62.30;;;17.23;;
62941;SDS011;49042;47.318;19.874;2022-12-05T11:33:19;15.63;;;7.87;;
62941;SDS011;49042;47.318;19.874;2022-12-05T11:36:34;40.60;;;14.98;;
62941;SDS011;49042;47.318;19.874;2022-12-05T11:39:40;73.13;;;28.40;;
62941;SDS011;49042;47.318;19.874;2022-12-05T11:52:56;46.80;;;16.45;;
62941;SDS011;49042;47.318;19.874;2022-12-05T12:06:42;16.35;;;8.75;;
62941;SDS011;49042;47.318;19.874;2022-12-05T12:16:35;11.95;;;6.00;;
62941;SDS011;49042;47.318;19.874;2022-12-05T12:23:08;17.08;;;9.98;;
62941;SDS011;49042;47.318;19.874;2022-12-05T12:26:28;22.63;;;14.73;;
62941;SDS011;49042;47.318;19.874;2022-12-05T12:35:57;10.93;;;6.45;;
62941;SDS011;49042;47.318;19.874;2022-12-05T12:42:26;14.75;;;7.43;;
62941;SDS011;49042;47.318;19.874;2022-12-05T12:52:14;8.95;;;6.28;;
62941;SDS011;49042;47.318;19.874;2022-12-05T12:58:53;10.55;;;7.03;;
62941;SDS011;49042;47.318;19.874;2022-12-05T13:02:17;26.62;;;12.98;;
62941;SDS011;49042;47.318;19.874;2022-12-05T13:05:33;7.62;;;5.10;;
62941;SDS011;49042;47.318;19.874;2022-12-05T13:08:44;6.70;;;4.75;;
62941;SDS011;49042;47.318;19.874;2022-12-05T13:11:51;11.85;;;6.53;;
62941;SDS011;49042;47.318;19.874;2022-12-05T13:15:15;5.20;;;4.18;;
62941;SDS011;49042;47.318;19.874;2022-12-05T13:18:21;13.07;;;8.82;;
62941;SDS011;49042;47.318;19.874;2022-12-05T13:21:25;8.15;;;5.18;;
62941;SDS011;49042;47.318;19.874;2022-12-05T13:24:28;10.63;;;7.47;;
62941;SDS011;49042;47.318;19.874;2022-12-05T13:27:29;15.65;;;9.18;;
62941;SDS011;49042;47.318;19.874;2022-12-05T13:30:31;10.65;;;7.97;;
62941;SDS011;49042;47.318;19.874;2022-12-05T13:33:43;10.05;;;7.55;;
62941;SDS011;49042;47.318;19.874;2022-12-05T13:36:47;21.08;;;10.05;;
62941;SDS011;49042;47.318;19.874;2022-12-05T13:44:00;10.30;;;6.20;;
62941;SDS011;49042;47.318;19.874;2022-12-05T13:47:28;19.92;;;9.45;;
62941;SDS011;49042;47.318;19.874;2022-12-05T13:50:48;12.82;;;6.93;;
62941;SDS011;49042;47.318;19.874;2022-12-05T13:54:12;19.20;;;11.40;;
62941;SDS011;49042;47.318;19.874;2022-12-05T14:00:37;19.92;;;11.18;;
62941;SDS011;49042;47.318;19.874;2022-12-05T14:07:00;16.10;;;8.43;;
62941;SDS011;49042;47.318;19.874;2022-12-05T14:10:02;23.70;;;14.32;;
62941;SDS011;49042;47.318;19.874;2022-12-05T14:13:39;12.35;;;7.47;;
62941;SDS011;49042;47.318;19.874;2022-12-05T14:19:50;12.18;;;7.40;;
62941;SDS011;49042;47.318;19.874;2022-12-05T14:26:20;17.23;;;8.65;;
62941;SDS011;49042;47.318;19.874;2022-12-05T14:32:45;12.15;;;9.05;;
62941;SDS011;49042;47.318;19.874;2022-12-05T14:35:49;9.93;;;7.60;;
62941;SDS011;49042;47.318;19.874;2022-12-05T14:38:53;16.12;;;9.75;;
62941;SDS011;49042;47.318;19.874;2022-12-05T14:41:56;22.75;;;13.57;;
62941;SDS011;49042;47.318;19.874;2022-12-05T14:45:16;20.95;;;13.00;;
62941;SDS011;49042;47.318;19.874;2022-12-05T14:48:32;13.80;;;9.40;;
62941;SDS011;49042;47.318;19.874;2022-12-05T14:54:38;23.23;;;13.55;;
62941;SDS011;49042;47.318;19.874;2022-12-05T14:57:45;20.23;;;13.55;;
62941;SDS011;49042;47.318;19.874;2022-12-05T15:00:59;11.25;;;7.78;;
62941;SDS011;49042;47.318;19.874;2022-12-05T15:04:05;11.75;;;7.53;;
62941;SDS011;49042;47.318;19.874;2022-12-05T15:07:16;9.70;;;6.57;;
62941;SDS011;49042;47.318;19.874;2022-12-05T15:10:35;9.95;;;7.35;;
62941;SDS011;49042;47.318;19.874;2022-12-05T15:13:38;22.62;;;14.68;;
62941;SDS011;49042;47.318;19.874;2022-12-05T15:16:41;22.62;;;13.82;;
62941;SDS011;49042;47.318;19.874;2022-12-05T15:19:46;14.35;;;9.48;;
62941;SDS011;49042;47.318;19.874;2022-12-05T15:22:55;21.25;;;9.52;;
62941;SDS011;49042;47.318;19.874;2022-12-05T15:25:57;13.15;;;8.35;;
62941;SDS011;49042;47.318;19.874;2022-12-05T15:32:22;19.20;;;11.10;;
62941;SDS011;49042;47.318;19.874;2022-12-05T15:35:27;26.33;;;14.98;;
62941;SDS011;49042;47.318;19.874;2022-12-05T15:38:33;33.55;;;19.45;;
62941;SDS011;49042;47.318;19.874;2022-12-05T15:41:35;28.20;;;15.45;;
62941;SDS011;49042;47.318;19.874;2022-12-05T15:44:38;29.37;;;15.40;;
62941;SDS011;49042;47.318;19.874;2022-12-05T15:47:40;23.67;;;13.95;;
62941;SDS011;49042;47.318;19.874;2022-12-05T15:50:43;35.05;;;16.85;;
62941;SDS011;49042;47.318;19.874;2022-12-05T15:53:50;46.37;;;23.48;;
62941;SDS011;49042;47.318;19.874;2022-12-05T16:00:01;17.58;;;10.90;;
62941;SDS011;49042;47.318;19.874;2022-12-05T16:03:21;29.12;;;15.63;;
62941;SDS011;49042;47.318;19.874;2022-12-05T16:06:34;39.42;;;20.02;;
62941;SDS011;49042;47.318;19.874;2022-12-05T16:09:43;24.92;;;14.70;;
62941;SDS011;49042;47.318;19.874;2022-12-05T16:12:46;30.20;;;15.75;;
62941;SDS011;49042;47.318;19.874;2022-12-05T16:15:51;27.37;;;14.85;;
62941;SDS011;49042;47.318;19.874;2022-12-05T16:18:55;37.10;;;18.77;;
62941;SDS011;49042;47.318;19.874;2022-12-05T16:25:21;22.52;;;14.05;;
62941;SDS011;49042;47.318;19.874;2022-12-05T16:28:31;17.85;;;10.07;;
62941;SDS011;49042;47.318;19.874;2022-12-05T16:31:33;21.85;;;12.40;;
62941;SDS011;49042;47.318;19.874;2022-12-05T16:34:36;27.58;;;15.18;;
62941;SDS011;49042;47.318;19.874;2022-12-05T16:37:38;27.70;;;15.55;;
62941;SDS011;49042;47.318;19.874;2022-12-05T16:40:40;30.70;;;16.73;;
62941;SDS011;49042;47.318;19.874;2022-12-05T16:44:03;21.73;;;14.05;;
62941;SDS011;49042;47.318;19.874;2022-12-05T16:47:24;28.83;;;15.27;;
62941;SDS011;49042;47.318;19.874;2022-12-05T16:50:31;47.22;;;21.73;;
62941;SDS011;49042;47.318;19.874;2022-12-05T16:53:35;43.92;;;21.85;;
62941;SDS011;49042;47.318;19.874;2022-12-05T16:56:37;63.50;;;29.52;;
62941;SDS011;49042;47.318;19.874;2022-12-05T16:59:39;81.85;;;38.70;;
62941;SDS011;49042;47.318;19.874;2022-12-05T17:02:44;49.33;;;28.40;;
62941;SDS011;49042;47.318;19.874;2022-12-05T17:05:47;39.22;;;20.62;;
62941;SDS011;49042;47.318;19.874;2022-12-05T17:08:49;29.33;;;15.68;;
62941;SDS011;49042;47.318;19.874;2022-12-05T17:11:53;21.25;;;12.18;;
62941;SDS011;49042;47.318;19.874;2022-12-05T17:15:02;18.20;;;10.15;;
62941;SDS011;49042;47.318;19.874;2022-12-05T17:18:17;16.33;;;10.00;;
62941;SDS011;49042;47.318;19.874;2022-12-05T17:21:28;16.77;;;9.15;;
62941;SDS011;49042;47.318;19.874;2022-12-05T17:24:32;15.07;;;9.57;;
62941;SDS011;49042;47.318;19.874;2022-12-05T17:27:34;28.02;;;14.60;;
62941;SDS011;49042;47.318;19.874;2022-12-05T17:30:35;37.75;;;16.70;;
62941;SDS011;49042;47.318;19.874;2022-12-05T17:33:38;43.38;;;21.12;;
62941;SDS011;49042;47.318;19.874;2022-12-05T17:36:40;45.05;;;22.37;;
62941;SDS011;49042;47.318;19.874;2022-12-05T17:39:43;43.28;;;20.58;;
62941;SDS011;49042;47.318;19.874;2022-12-05T17:42:45;41.53;;;20.65;;
62941;SDS011;49042;47.318;19.874;2022-12-05T17:45:47;76.70;;;51.33;;
62941;SDS011;49042;47.318;19.874;2022-12-05T17:48:49;57.10;;;34.03;;
62941;SDS011;49042;47.318;19.874;2022-12-05T17:51:52;44.85;;;23.98;;
62941;SDS011;49042;47.318;19.874;2022-12-05T17:55:18;32.55;;;18.62;;
62941;SDS011;49042;47.318;19.874;2022-12-05T17:58:21;31.02;;;17.25;;
62941;SDS011;49042;47.318;19.874;2022-12-05T18:01:23;34.53;;;18.60;;
62941;SDS011;49042;47.318;19.874;2022-12-05T18:04:32;39.28;;;20.83;;
62941;SDS011;49042;47.318;19.874;2022-12-05T18:07:34;27.42;;;15.05;;
62941;SDS011;49042;47.318;19.874;2022-12-05T18:10:35;17.15;;;10.13;;
62941;SDS011;49042;47.318;19.874;2022-12-05T18:13:40;16.80;;;10.07;;
62941;SDS011;49042;47.318;19.874;2022-12-05T18:16:42;23.70;;;13.20;;
62941;SDS011;49042;47.318;19.874;2022-12-05T18:19:44;39.85;;;21.90;;
62941;SDS011;49042;47.318;19.874;2022-12-05T18:22:45;52.20;;;26.67;;
62941;SDS011;49042;47.318;19.874;2022-12-05T18:25:55;34.72;;;18.92;;
62941;SDS011;49042;47.318;19.874;2022-12-05T18:29:00;16.02;;;10.55;;
62941;SDS011;49042;47.318;19.874;2022-12-05T18:32:03;17.27;;;11.02;;
62941;SDS011;49042;47.318;19.874;2022-12-05T18:35:05;18.12;;;11.20;;
62941;SDS011;49042;47.318;19.874;2022-12-05T18:38:13;18.30;;;11.12;;
62941;SDS011;49042;47.318;19.874;2022-12-05T18:41:14;17.62;;;11.57;;
62941;SDS011;49042;47.318;19.874;2022-12-05T18:44:17;22.17;;;12.73;;
62941;SDS011;49042;47.318;19.874;2022-12-05T18:47:20;23.80;;;15.05;;
62941;SDS011;49042;47.318;19.874;2022-12-05T18:50:22;26.92;;;16.48;;
62941;SDS011;49042;47.318;19.874;2022-12-05T18:53:25;26.73;;;14.70;;
62941;SDS011;49042;47.318;19.874;2022-12-05T18:56:28;22.58;;;14.73;;
62941;SDS011;49042;47.318;19.874;2022-12-05T18:59:31;25.40;;;13.80;;
62941;SDS011;49042;47.318;19.874;2022-12-05T19:02:34;26.75;;;16.05;;
62941;SDS011;49042;47.318;19.874;2022-12-05T19:05:36;27.33;;;16.45;;
62941;SDS011;49042;47.318;19.874;2022-12-05T19:08:38;28.98;;;17.17;;
62941;SDS011;49042;47.318;19.874;2022-12-05T19:11:41;27.58;;;16.08;;
62941;SDS011;49042;47.318;19.874;2022-12-05T19:14:48;21.30;;;13.85;;
62941;SDS011;49042;47.318;19.874;2022-12-05T19:17:49;21.62;;;12.57;;
62941;SDS011;49042;47.318;19.874;2022-12-05T19:20:51;18.37;;;11.15;;
62941;SDS011;49042;47.318;19.874;2022-12-05T19:23:53;24.12;;;12.93;;
62941;SDS011;49042;47.318;19.874;2022-12-05T19:26:56;21.45;;;13.05;;
62941;SDS011;49042;47.318;19.874;2022-12-05T19:29:58;20.23;;;11.50;;
62941;SDS011;49042;47.318;19.874;2022-12-05T19:33:08;22.00;;;11.55;;
62941;SDS011;49042;47.318;19.874;2022-12-05T19:36:11;26.27;;;13.65;;
62941;SDS011;49042;47.318;19.874;2022-12-05T19:39:16;24.37;;;13.00;;
62941;SDS011;49042;47.318;19.874;2022-12-05T19:42:20;18.77;;;11.98;;
62941;SDS011;49042;47.318;19.874;2022-12-05T19:45:22;24.42;;;12.63;;
62941;SDS011;49042;47.318;19.874;2022-12-05T19:48:24;23.12;;;14.38;;
62941;SDS011;49042;47.318;19.874;2022-12-05T19:51:27;21.98;;;12.43;;
62941;SDS011;49042;47.318;19.874;2022-12-05T19:54:29;19.45;;;11.65;;
62941;SDS011;49042;47.318;19.874;2022-12-05T19:57:34;16.05;;;9.75;;
62941;SDS011;49042;47.318;19.874;2022-12-05T20:00:36;19.25;;;11.27;;
62941;SDS011;49042;47.318;19.874;2022-12-05T20:03:39;17.42;;;11.00;;
62941;SDS011;49042;47.318;19.874;2022-12-05T20:06:42;20.12;;;11.45;;
62941;SDS011;49042;47.318;19.874;2022-12-05T20:09:49;19.05;;;11.23;;
62941;SDS011;49042;47.318;19.874;2022-12-05T20:12:51;20.65;;;11.60;;
62941;SDS011;49042;47.318;19.874;2022-12-05T20:15:53;20.27;;;11.25;;
62941;SDS011;49042;47.318;19.874;2022-12-05T20:18:56;18.08;;;11.55;;
62941;SDS011;49042;47.318;19.874;2022-12-05T20:21:59;15.38;;;9.68;;
62941;SDS011;49042;47.318;19.874;2022-12-05T20:25:02;15.55;;;9.43;;
62941;SDS011;49042;47.318;19.874;2022-12-05T20:28:04;17.05;;;9.30;;
62941;SDS011;49042;47.318;19.874;2022-12-05T20:31:06;14.45;;;9.65;;